createdAt,value
2018-03-30T00:01:50.456Z,13.40
2018-03-30T00:04:16.756Z,13.32
2018-03-30T00:06:43.349Z,12.00
2018-03-30T00:09:09.587Z,13.60
2018-03-30T00:11:35.832Z,13.05
2018-03-30T00:14:02.066Z,14.18
2018-03-30T00:16:28.671Z,14.30
2018-03-30T00:18:54.913Z,13.70
2018-03-30T00:21:21.720Z,17.15
2018-03-30T00:23:47.933Z,15.10
2018-03-30T00:26:14.177Z,14.82
2018-03-30T00:28:40.945Z,14.25
2018-03-30T00:31:07.192Z,15.05
2018-03-30T00:33:33.413Z,13.07
2018-03-30T00:35:59.614Z,13.60
2018-03-30T00:38:25.869Z,15.73
2018-03-30T00:40:52.118Z,13.52
2018-03-30T00:43:18.389Z,14.80
2018-03-30T00:45:44.573Z,14.05
2018-03-30T00:48:10.801Z,14.60
2018-03-30T00:50:37.046Z,14.70
2018-03-30T00:53:03.662Z,17.27
2018-03-30T00:55:29.935Z,15.50
2018-03-30T00:57:57.020Z,14.30
2018-03-30T01:00:23.240Z,15.38
2018-03-30T01:02:49.496Z,11.75
2018-03-30T01:05:16.120Z,13.05
2018-03-30T01:07:42.340Z,13.23
2018-03-30T01:12:41.526Z,13.65
2018-03-30T01:15:07.740Z,14.10
2018-03-30T01:17:33.985Z,13.48
2018-03-30T01:20:00.238Z,14.40
2018-03-30T01:22:26.461Z,13.82
2018-03-30T01:24:52.701Z,13.30
2018-03-30T01:27:18.947Z,18.60
2018-03-30T01:29:45.563Z,16.40
2018-03-30T01:32:12.446Z,15.98
2018-03-30T01:34:39.203Z,14.55
2018-03-30T01:37:05.405Z,14.10
2018-03-30T01:39:32.012Z,15.85
2018-03-30T01:41:58.213Z,15.60
2018-03-30T01:44:24.454Z,20.52
2018-03-30T01:46:50.729Z,14.60
2018-03-30T01:49:17.000Z,15.60
2018-03-30T01:51:44.276Z,13.75
2018-03-30T01:54:10.520Z,20.02
2018-03-30T01:56:36.720Z,17.55
2018-03-30T01:59:02.993Z,31.25
2018-03-30T02:01:29.589Z,46.78
2018-03-30T02:03:55.802Z,25.55
2018-03-30T02:06:22.092Z,33.83
2018-03-30T02:08:48.320Z,25.33
2018-03-30T02:11:14.527Z,24.55
2018-03-30T02:13:41.121Z,24.95
2018-03-30T02:16:07.357Z,25.80
2018-03-30T02:18:33.586Z,25.08
2018-03-30T02:20:59.804Z,32.20
2018-03-30T02:23:26.016Z,27.35
2018-03-30T02:25:52.222Z,30.70
2018-03-30T02:28:18.450Z,34.03
2018-03-30T02:30:44.671Z,25.25
2018-03-30T02:33:10.877Z,34.65
2018-03-30T02:35:37.106Z,76.00
2018-03-30T02:38:03.339Z,28.48
2018-03-30T02:40:29.595Z,97.20
2018-03-30T02:42:55.881Z,61.63
2018-03-30T02:45:22.117Z,31.30
2018-03-30T02:47:48.342Z,96.20
2018-03-30T02:50:15.340Z,73.87
2018-03-30T02:52:41.584Z,133.37
2018-03-30T02:55:07.831Z,72.22
2018-03-30T02:57:34.124Z,47.20
2018-03-30T03:00:00.277Z,40.92
2018-03-30T03:02:26.516Z,63.63
2018-03-30T03:04:53.706Z,39.65
2018-03-30T03:07:20.275Z,62.85
2018-03-30T03:09:46.490Z,34.35
2018-03-30T03:12:12.742Z,49.42
2018-03-30T03:14:38.947Z,43.83
2018-03-30T03:17:05.173Z,86.80
2018-03-30T03:19:31.418Z,25.10
2018-03-30T03:21:57.634Z,44.45
2018-03-30T03:24:23.865Z,35.63
2018-03-30T03:26:50.121Z,27.13
2018-03-30T03:29:16.333Z,31.52
2018-03-30T03:31:42.566Z,46.67
2018-03-30T03:34:08.862Z,29.05
2018-03-30T03:36:35.057Z,45.35
2018-03-30T03:39:01.269Z,32.60
2018-03-30T03:41:27.493Z,37.65
2018-03-30T03:43:53.741Z,46.40
2018-03-30T03:46:19.952Z,66.30
2018-03-30T03:48:46.200Z,30.65
2018-03-30T03:51:13.398Z,38.58
2018-03-30T03:53:39.620Z,39.22
2018-03-30T03:56:05.842Z,46.80
2018-03-30T03:58:32.075Z,36.75
2018-03-30T04:00:58.327Z,31.92
2018-03-30T04:03:24.540Z,69.20
2018-03-30T04:05:50.774Z,42.60
2018-03-30T04:08:16.974Z,39.00
2018-03-30T04:10:43.215Z,43.95
2018-03-30T04:13:09.465Z,29.10
2018-03-30T04:15:35.663Z,30.73
2018-03-30T04:18:01.927Z,68.50
2018-03-30T04:20:28.152Z,46.42
2018-03-30T04:22:54.402Z,42.30
2018-03-30T04:25:20.611Z,44.20
2018-03-30T04:27:46.856Z,35.28
2018-03-30T04:30:13.072Z,39.70
2018-03-30T04:32:39.312Z,50.17
2018-03-30T04:35:05.537Z,79.80
2018-03-30T04:37:31.737Z,60.08
2018-03-30T04:39:57.974Z,45.42
2018-03-30T04:42:24.226Z,31.85
2018-03-30T04:44:50.481Z,62.08
2018-03-30T04:47:17.702Z,45.67
2018-03-30T04:49:43.951Z,43.63
2018-03-30T04:52:10.163Z,41.47
2018-03-30T04:54:36.404Z,52.03
2018-03-30T04:57:02.682Z,41.10
2018-03-30T04:59:28.903Z,33.28
2018-03-30T05:01:55.150Z,37.28
2018-03-30T05:04:21.376Z,65.45
2018-03-30T05:06:47.630Z,73.93
2018-03-30T05:09:13.839Z,52.58
2018-03-30T05:11:40.058Z,33.17
2018-03-30T05:14:06.315Z,29.85
2018-03-30T05:16:32.555Z,36.13
2018-03-30T05:18:58.773Z,97.60
2018-03-30T05:21:25.002Z,82.32
2018-03-30T05:23:51.221Z,51.03
2018-03-30T05:26:17.445Z,34.08
2018-03-30T05:28:43.693Z,33.67
2018-03-30T05:31:10.273Z,52.10
2018-03-30T05:33:36.500Z,63.55
2018-03-30T05:36:02.748Z,55.85
2018-03-30T05:38:28.962Z,31.90
2018-03-30T05:40:55.222Z,35.03
2018-03-30T05:43:21.449Z,34.10
2018-03-30T05:45:47.727Z,34.95
2018-03-30T05:48:14.328Z,37.13
2018-03-30T05:50:40.567Z,56.33
2018-03-30T05:53:07.153Z,27.23
2018-03-30T05:55:33.410Z,41.05
2018-03-30T05:57:59.648Z,27.67
2018-03-30T06:00:25.896Z,34.65
2018-03-30T06:02:53.150Z,31.33
2018-03-30T06:05:21.914Z,34.08
2018-03-30T06:07:48.143Z,29.17
2018-03-30T06:10:14.357Z,42.33
2018-03-30T06:12:40.579Z,46.17
2018-03-30T06:15:06.822Z,60.28
2018-03-30T06:17:33.070Z,29.00
2018-03-30T06:19:59.316Z,37.42
2018-03-30T06:22:25.597Z,29.10
2018-03-30T06:24:51.831Z,43.65
2018-03-30T06:27:18.067Z,31.08
2018-03-30T06:29:44.311Z,33.33
2018-03-30T06:32:10.964Z,41.65
2018-03-30T06:34:37.557Z,29.23
2018-03-30T06:37:03.812Z,30.27
2018-03-30T06:39:30.389Z,36.05
2018-03-30T06:41:56.628Z,23.40
2018-03-30T06:44:22.880Z,64.20
2018-03-30T06:46:49.119Z,23.00
2018-03-30T06:49:15.349Z,44.38
2018-03-30T06:51:42.177Z,22.30
2018-03-30T06:54:08.433Z,33.55
2018-03-30T06:56:34.674Z,22.23
2018-03-30T06:59:01.283Z,21.70
2018-03-30T07:01:28.102Z,27.30
2018-03-30T07:03:54.364Z,28.67
2018-03-30T07:06:20.610Z,26.95
2018-03-30T07:08:47.212Z,30.08
2018-03-30T07:11:13.421Z,22.23
2018-03-30T07:13:39.705Z,24.60
2018-03-30T07:16:05.957Z,30.73
2018-03-30T07:18:32.193Z,32.72
2018-03-30T07:20:58.439Z,21.52
2018-03-30T07:23:24.668Z,22.87
2018-03-30T07:25:51.694Z,24.02
2018-03-30T07:28:17.998Z,24.80
2018-03-30T07:30:44.590Z,26.92
2018-03-30T07:33:10.817Z,38.95
2018-03-30T07:35:37.054Z,27.65
2018-03-30T07:38:04.329Z,26.45
2018-03-30T07:40:30.597Z,30.90
2018-03-30T07:42:56.810Z,28.98
2018-03-30T07:45:23.055Z,28.50
2018-03-30T07:47:49.280Z,24.95
2018-03-30T07:50:15.497Z,35.05
2018-03-30T07:52:41.737Z,38.40
2018-03-30T07:55:07.968Z,24.83
2018-03-30T07:57:34.227Z,28.45
2018-03-30T08:00:00.483Z,36.35
2018-03-30T08:02:28.110Z,28.73
2018-03-30T08:04:54.378Z,25.85
2018-03-30T08:07:21.034Z,24.95
2018-03-30T08:09:47.274Z,29.73
2018-03-30T08:12:13.543Z,22.87
2018-03-30T08:14:39.810Z,28.15
2018-03-30T08:17:06.836Z,20.62
2018-03-30T08:19:33.075Z,32.45
2018-03-30T08:21:59.683Z,24.35
2018-03-30T08:24:25.950Z,24.08
2018-03-30T08:26:52.168Z,18.42
2018-03-30T08:29:20.480Z,18.62
2018-03-30T08:31:51.292Z,19.60
2018-03-30T08:34:18.841Z,21.15
2018-03-30T08:36:45.109Z,16.80
2018-03-30T08:39:11.370Z,18.65
2018-03-30T08:41:37.628Z,16.35
2018-03-30T08:44:04.485Z,16.00
2018-03-30T08:46:30.712Z,18.25
2018-03-30T08:48:56.961Z,17.45
2018-03-30T08:51:23.204Z,15.82
2018-03-30T08:53:49.440Z,15.52
2018-03-30T08:56:19.244Z,14.63
2018-03-30T08:58:48.374Z,17.17
2018-03-30T09:01:14.642Z,14.07
2018-03-30T09:03:40.915Z,15.63
2018-03-30T09:06:07.198Z,15.25
2018-03-30T09:08:33.416Z,13.65
2018-03-30T09:10:59.680Z,17.33
2018-03-30T09:13:25.943Z,12.95
2018-03-30T09:15:52.190Z,17.50
2018-03-30T09:18:19.443Z,16.30
2018-03-30T09:20:46.058Z,14.13
2018-03-30T09:23:12.303Z,14.02
2018-03-30T09:25:38.916Z,17.60
2018-03-30T09:28:05.222Z,15.70
2018-03-30T09:30:31.507Z,14.68
2018-03-30T09:32:57.726Z,15.00
2018-03-30T09:35:24.837Z,15.85
2018-03-30T09:37:51.070Z,15.27
2018-03-30T09:40:18.137Z,16.20
2018-03-30T09:42:44.399Z,13.70
2018-03-30T09:45:10.649Z,18.80
2018-03-30T09:47:36.902Z,14.60
2018-03-30T09:50:03.205Z,17.12
2018-03-30T09:52:29.489Z,16.55
2018-03-30T09:54:56.141Z,15.00
2018-03-30T09:57:22.768Z,17.23
2018-03-30T09:59:49.395Z,20.20
2018-03-30T10:02:15.665Z,13.93
2018-03-30T10:04:43.756Z,14.50
2018-03-30T10:07:10.027Z,13.70
2018-03-30T10:09:36.296Z,15.32
2018-03-30T10:12:02.561Z,16.12
2018-03-30T10:14:28.778Z,14.23
2018-03-30T10:16:55.061Z,14.18
2018-03-30T10:19:21.702Z,14.43
2018-03-30T10:21:47.990Z,15.90
2018-03-30T10:24:14.237Z,12.25
2018-03-30T10:26:40.513Z,13.20
2018-03-30T10:29:06.775Z,13.33
2018-03-30T10:31:33.005Z,14.90
2018-03-30T10:33:59.687Z,12.33
2018-03-30T10:36:25.906Z,13.20
2018-03-30T10:38:52.510Z,13.23
2018-03-30T10:41:18.769Z,17.00
2018-03-30T10:43:45.395Z,12.50
2018-03-30T10:46:11.987Z,14.03
2018-03-30T10:48:38.256Z,12.67
2018-03-30T10:51:04.506Z,16.17
2018-03-30T10:53:31.106Z,13.40
2018-03-30T10:55:57.468Z,8.50
2018-03-30T10:58:23.702Z,5.63
2018-03-30T11:00:50.922Z,5.80
2018-03-30T11:03:17.235Z,5.33
2018-03-30T11:05:43.468Z,5.00
2018-03-30T11:08:09.808Z,5.63
2018-03-30T11:10:36.090Z,4.70
2018-03-30T11:13:02.965Z,5.37
2018-03-30T11:15:29.239Z,5.70
2018-03-30T11:17:55.971Z,4.73
2018-03-30T11:20:22.280Z,4.57
2018-03-30T11:22:48.546Z,4.60
2018-03-30T11:25:14.862Z,4.97
2018-03-30T11:27:41.514Z,4.47
2018-03-30T11:30:08.124Z,3.87
2018-03-30T11:32:34.753Z,4.43
2018-03-30T11:35:01.931Z,3.63
2018-03-30T11:37:28.211Z,2.90
2018-03-30T11:39:55.830Z,2.53
2018-03-30T11:42:22.529Z,2.10
2018-03-30T11:44:48.769Z,2.07
2018-03-30T11:47:15.085Z,2.20
2018-03-30T11:49:42.840Z,2.60
2018-03-30T11:52:09.183Z,1.80
2018-03-30T11:54:35.422Z,1.70
2018-03-30T11:57:02.542Z,1.50
2018-03-30T11:59:28.801Z,2.20
2018-03-30T12:01:55.081Z,2.20
2018-03-30T12:04:21.351Z,2.10
2018-03-30T12:06:47.659Z,1.50
2018-03-30T12:09:13.987Z,1.37
2018-03-30T12:11:40.270Z,1.47
2018-03-30T12:14:06.497Z,1.70
2018-03-30T12:16:33.674Z,1.33
2018-03-30T12:18:59.959Z,1.90
2018-03-30T12:21:26.622Z,1.40
2018-03-30T12:23:52.913Z,1.00
2018-03-30T12:26:19.210Z,1.40
2018-03-30T12:28:46.325Z,1.30
2018-03-30T12:31:12.630Z,2.37
2018-03-30T12:33:38.869Z,1.60
2018-03-30T12:36:06.009Z,1.40
2018-03-30T12:38:32.516Z,1.63
2018-03-30T12:40:59.351Z,1.50
2018-03-30T12:43:25.940Z,1.70
2018-03-30T12:45:52.579Z,1.27
2018-03-30T12:48:19.217Z,1.27
2018-03-30T12:50:47.903Z,1.90
2018-03-30T12:53:15.602Z,1.70
2018-03-30T12:55:41.844Z,1.50
2018-03-30T12:58:09.052Z,1.47
2018-03-30T13:00:36.055Z,1.90
2018-03-30T13:03:03.011Z,1.37
2018-03-30T13:05:29.266Z,1.53
2018-03-30T13:07:56.466Z,2.77
2018-03-30T13:10:22.780Z,1.30
2018-03-30T13:12:49.110Z,1.70
2018-03-30T13:15:15.598Z,1.90
2018-03-30T13:17:42.214Z,2.00
2018-03-30T13:20:09.228Z,1.70
2018-03-30T13:22:35.548Z,1.50
2018-03-30T13:25:03.422Z,1.90
2018-03-30T13:27:30.550Z,1.60
2018-03-30T13:29:56.814Z,1.47
2018-03-30T13:32:24.675Z,1.43
2018-03-30T13:34:52.759Z,1.33
2018-03-30T13:37:19.051Z,1.43
2018-03-30T13:39:45.793Z,1.93
2018-03-30T13:42:12.068Z,1.43
2018-03-30T13:44:38.949Z,1.30
2018-03-30T13:47:05.579Z,3.70
2018-03-30T13:49:31.854Z,1.40
2018-03-30T13:52:24.705Z,1.13
2018-03-30T13:54:51.753Z,1.37
2018-03-30T13:57:29.864Z,1.27
2018-03-30T13:59:56.982Z,1.40
2018-03-30T14:02:30.264Z,1.53
2018-03-30T14:08:31.504Z,1.23
2018-03-30T14:11:00.167Z,1.30
2018-03-30T14:13:26.487Z,0.80
2018-03-30T14:15:58.878Z,1.10
2018-03-30T14:21:17.975Z,1.47
2018-03-30T14:23:44.991Z,1.23
2018-03-30T14:29:12.138Z,0.90
2018-03-30T14:31:45.276Z,0.90
2018-03-30T14:34:17.264Z,0.80
2018-03-30T14:37:00.469Z,1.33
2018-03-30T14:39:40.594Z,0.97
2018-03-30T14:42:24.767Z,2.93
2018-03-30T14:44:56.864Z,1.17
2018-03-30T14:47:24.407Z,1.03
2018-03-30T14:49:54.328Z,1.33
2018-03-30T14:52:45.290Z,1.00
2018-03-30T14:55:22.259Z,1.20
2018-03-30T14:57:55.335Z,2.10
2018-03-30T15:00:27.421Z,1.70
2018-03-30T15:03:10.597Z,1.00
2018-03-30T15:05:45.730Z,3.50
2018-03-30T15:11:35.578Z,1.50
2018-03-30T15:14:16.774Z,1.17
2018-03-30T15:16:50.951Z,4.50
2018-03-30T15:19:28.039Z,1.30
2018-03-30T15:22:12.975Z,1.20
2018-03-30T15:24:52.072Z,0.80
2018-03-30T15:27:22.345Z,1.07
2018-03-30T15:30:01.121Z,1.10
2018-03-30T15:32:28.241Z,1.53
2018-03-30T15:34:54.552Z,1.80
2018-03-30T15:37:21.904Z,1.53
2018-03-30T15:39:53.807Z,1.20
2018-03-30T15:42:20.939Z,1.13
2018-03-30T15:44:47.224Z,1.07
2018-03-30T15:47:15.816Z,2.10
2018-03-30T15:49:42.859Z,1.20
2018-03-30T15:52:12.856Z,1.57
2018-03-30T15:54:39.162Z,2.00
2018-03-30T15:57:05.494Z,1.63
2018-03-30T15:59:31.852Z,1.23
2018-03-30T16:01:58.194Z,1.57
2018-03-30T16:04:24.485Z,1.67
2018-03-30T16:06:50.780Z,2.20
2018-03-30T16:09:19.093Z,2.10
2018-03-30T16:11:45.396Z,2.37
2018-03-30T16:14:12.739Z,1.33
2018-03-30T16:16:39.010Z,1.63
2018-03-30T16:19:05.082Z,1.60
2018-03-30T16:21:31.124Z,1.40
2018-03-30T16:23:57.164Z,1.67
2018-03-30T16:26:23.303Z,1.20
2018-03-30T16:28:49.383Z,1.27
2018-03-30T16:31:15.485Z,1.57
2018-03-30T16:33:41.875Z,1.70
2018-03-30T16:36:07.940Z,1.57
2018-03-30T16:38:34.408Z,1.40
2018-03-30T16:41:00.437Z,1.70
2018-03-30T16:43:26.553Z,1.83
2018-03-30T16:45:52.650Z,1.77
2018-03-30T16:48:19.027Z,1.47
2018-03-30T16:50:45.085Z,1.90
2018-03-30T16:53:11.159Z,1.70
2018-03-30T16:55:37.234Z,2.27
2018-03-30T16:58:04.250Z,1.47
2018-03-30T17:00:30.318Z,3.10
2018-03-30T17:02:56.742Z,1.93
2018-03-30T17:05:23.164Z,1.57
2018-03-30T17:07:49.213Z,1.67
2018-03-30T17:10:15.273Z,1.40
2018-03-30T17:12:41.416Z,2.00
2018-03-30T17:15:07.482Z,3.50
2018-03-30T17:17:33.598Z,1.80
2018-03-30T17:19:59.626Z,1.70
2018-03-30T17:22:26.009Z,2.07
2018-03-30T17:24:52.098Z,1.60
2018-03-30T17:27:18.115Z,1.73
2018-03-30T17:29:44.558Z,1.80
2018-03-30T17:32:10.635Z,3.23
2018-03-30T17:34:36.753Z,1.67
2018-03-30T17:37:03.687Z,2.30
2018-03-30T17:39:29.827Z,2.00
2018-03-30T17:41:55.862Z,2.23
2018-03-30T17:44:21.926Z,2.45
2018-03-30T17:46:48.009Z,2.10
2018-03-30T17:49:14.051Z,7.18
2018-03-30T17:51:40.134Z,2.60
2018-03-30T17:54:06.220Z,2.60
2018-03-30T17:56:32.293Z,2.42
2018-03-30T17:58:58.363Z,2.70
2018-03-30T18:01:24.451Z,2.53
2018-03-30T18:03:50.490Z,3.70
2018-03-30T18:06:16.961Z,4.67
2018-03-30T18:08:43.066Z,3.97
2018-03-30T18:11:09.516Z,4.50
2018-03-30T18:13:35.597Z,4.20
2018-03-30T18:16:02.082Z,2.95
2018-03-30T18:18:28.166Z,4.47
2018-03-30T18:20:54.241Z,4.12
2018-03-30T18:23:20.328Z,3.17
2018-03-30T18:25:46.771Z,3.30
2018-03-30T18:28:12.887Z,2.83
2018-03-30T18:30:38.972Z,2.90
2018-03-30T18:33:05.078Z,2.62
2018-03-30T18:35:31.115Z,3.28
2018-03-30T18:37:57.224Z,2.70
2018-03-30T18:40:23.288Z,3.45
2018-03-30T18:42:49.355Z,2.60
2018-03-30T18:45:16.333Z,2.75
2018-03-30T18:47:42.414Z,3.53
2018-03-30T18:50:08.519Z,3.60
2018-03-30T18:52:34.629Z,4.00
2018-03-30T18:55:00.675Z,3.00
2018-03-30T18:57:27.099Z,10.23
2018-03-30T18:59:53.572Z,7.53
2018-03-30T19:02:19.633Z,13.37
2018-03-30T19:04:45.730Z,12.53
2018-03-30T19:07:11.813Z,9.23
2018-03-30T19:09:38.264Z,5.20
2018-03-30T19:12:04.370Z,6.20
2018-03-30T19:14:30.470Z,5.82
2018-03-30T19:16:56.596Z,5.12
2018-03-30T19:19:22.656Z,4.80
2018-03-30T19:21:48.761Z,6.03
2018-03-30T19:24:15.268Z,4.15
2018-03-30T19:26:41.336Z,4.75
2018-03-30T19:29:08.050Z,3.03
2018-03-30T19:31:34.103Z,4.43
2018-03-30T19:34:00.579Z,5.12
2018-03-30T19:36:26.705Z,3.78
2018-03-30T19:38:52.761Z,4.60
2018-03-30T19:41:18.845Z,3.40
2018-03-30T19:43:44.914Z,6.37
2018-03-30T19:46:11.014Z,5.15
2018-03-30T19:48:37.095Z,5.28
2018-03-30T19:51:03.256Z,4.47
2018-03-30T19:53:29.353Z,4.57
2018-03-30T19:55:55.447Z,4.25
2018-03-30T19:58:23.610Z,5.25
2018-03-30T20:00:49.707Z,6.78
2018-03-30T20:03:16.356Z,5.68
2018-03-30T20:05:42.524Z,6.37
2018-03-30T20:08:09.006Z,6.60
2018-03-30T20:10:35.122Z,7.45
2018-03-30T20:13:01.247Z,7.07
2018-03-30T20:15:27.320Z,7.65
2018-03-30T20:17:53.426Z,8.65
2018-03-30T20:20:19.484Z,7.43
2018-03-30T20:22:45.886Z,7.18
2018-03-30T20:25:29.317Z,8.00
2018-03-30T20:27:55.449Z,7.75
2018-03-30T20:30:21.520Z,8.27
2018-03-30T20:32:47.650Z,8.45
2018-03-30T20:35:13.755Z,8.30
2018-03-30T20:37:39.843Z,8.55
2018-03-30T20:40:05.944Z,7.85
2018-03-30T20:42:32.021Z,7.30
2018-03-30T20:44:58.064Z,7.97
2018-03-30T20:47:24.176Z,7.45
2018-03-30T20:49:50.330Z,9.13
2018-03-30T20:52:16.407Z,8.57
2018-03-30T20:54:42.919Z,7.47
2018-03-30T20:57:08.991Z,7.25
2018-03-30T20:59:35.033Z,6.45
2018-03-30T21:02:01.131Z,7.40
2018-03-30T21:04:27.198Z,7.80
2018-03-30T21:06:53.264Z,8.10
2018-03-30T21:09:19.372Z,8.23
2018-03-30T21:11:45.407Z,7.00
2018-03-30T21:14:11.430Z,6.55
2018-03-30T21:16:37.534Z,5.57
2018-03-30T21:19:03.566Z,5.00
2018-03-30T21:21:30.529Z,5.28
2018-03-30T21:23:57.919Z,5.40
2018-03-30T21:26:23.960Z,4.32
2018-03-30T21:28:50.008Z,3.65
2018-03-30T21:31:16.018Z,3.05
2018-03-30T21:33:42.076Z,3.78
2018-03-30T21:36:08.112Z,4.32
2018-03-30T21:38:34.145Z,4.43
2018-03-30T21:41:00.224Z,4.90
2018-03-30T21:43:26.217Z,4.80
2018-03-30T21:45:52.267Z,4.95
2018-03-30T21:48:18.298Z,6.03
2018-03-30T21:50:44.418Z,5.97
2018-03-30T21:53:10.440Z,7.50
2018-03-30T21:55:36.488Z,116.22
2018-03-30T21:58:02.565Z,164.00
2018-03-30T22:00:28.585Z,77.35
2018-03-30T22:02:54.678Z,79.87
2018-03-30T22:05:21.077Z,81.40
2018-03-30T22:07:47.088Z,82.18
2018-03-30T22:10:13.144Z,197.50
2018-03-30T22:12:39.538Z,90.30
2018-03-30T22:15:05.612Z,79.68
2018-03-30T22:17:32.075Z,77.12
2018-03-30T22:19:58.121Z,80.20
2018-03-30T22:22:24.181Z,125.90
2018-03-30T22:24:50.232Z,78.10
2018-03-30T22:27:16.278Z,76.25
2018-03-30T22:29:42.305Z,75.03
2018-03-30T22:32:08.340Z,76.95
2018-03-30T22:34:34.411Z,125.10
2018-03-30T22:37:00.825Z,8.55
2018-03-30T22:39:26.844Z,99.10
2018-03-30T22:41:52.905Z,97.43
2018-03-30T22:44:18.955Z,78.68
2018-03-30T22:46:44.974Z,88.85
2018-03-30T22:49:11.030Z,74.80
2018-03-30T22:51:37.083Z,71.53
2018-03-30T22:54:03.085Z,72.75
2018-03-30T22:56:29.155Z,77.43
2018-03-30T22:58:55.198Z,74.07
2018-03-30T23:01:21.233Z,74.97
2018-03-30T23:03:47.267Z,73.30
2018-03-30T23:06:13.260Z,73.62
2018-03-30T23:08:39.294Z,71.37
2018-03-30T23:11:05.407Z,73.65
2018-03-30T23:13:31.412Z,83.37
2018-03-30T23:15:57.452Z,75.25
2018-03-30T23:18:23.563Z,76.80
2018-03-30T23:20:49.593Z,71.37
2018-03-30T23:23:15.588Z,78.93
2018-03-30T23:25:41.596Z,74.07
2018-03-30T23:28:07.646Z,71.87
2018-03-30T23:30:33.693Z,72.43
2018-03-30T23:32:59.755Z,71.90
2018-03-30T23:35:25.774Z,77.28
2018-03-30T23:37:51.780Z,77.75
2018-03-30T23:40:17.816Z,76.45
2018-03-30T23:42:43.858Z,73.95
2018-03-30T23:45:09.885Z,99.18
2018-03-30T23:47:35.907Z,28.15
2018-03-30T23:50:02.382Z,75.45
2018-03-30T23:52:28.413Z,75.37
2018-03-30T23:54:54.435Z,129.80
2018-03-30T23:57:20.485Z,127.03
2018-03-30T23:59:46.511Z,122.35
